Terminal Aerodrome Forecast
Issued by NWS

Current Version | Previous Version | Text Only | Print | Product List | Glossary On
Versions: 1 2 3 4 5 6 7 8 9 10 11 12
000
FTUS43 KMQT 231720
TAFIWD
TAF
KIWD 231720Z 2318/2418 21007KT P6SM BKN130
     FM232200 27005KT P6SM VCSH BKN070
     FM240100 32010KT P6SM VCSH OVC035
     FM240200 33012G21KT P6SM VCSH OVC030
     FM240300 33013G24KT P6SM VCSH OVC015
     FM240400 34014G25KT P6SM -SHRA OVC010
     FM240700 35016G28KT P6SM -SHRA OVC008
     FM241200 35020G34KT 6SM -SHRA OVC008=

USA.gov is the U.S. government's official web portal to all federal, state and local government web resources and services.